Time;durP1;ratioP1;P1;durP2;ratioP2;P2;SDS_P1;SDS_P2;PMS_P1;PMS_P2;Temp;Humidity;BMP_temperature;BMP_pressure;BME280_temperature;BME280_humidity;BME280_pressure;Samples;Min_cycle;Max_cycle;Signal;HPM_P1;HPM_P2
2023/06/03 00:01:42;;;;;;;7.95;3.85;;;20.90;64.70;;;;;;6243809;28;20068;-69
2023/06/03 00:04:43;;;;;;;5.03;3.30;;;20.90;64.60;;;;;;6234171;28;20101;-68
2023/06/03 00:07:44;;;;;;;9.00;3.38;;;20.80;64.40;;;;;;6241189;28;20067;-69
2023/06/03 00:10:45;;;;;;;7.95;4.60;;;20.80;64.40;;;;;;6240727;28;20029;-68
2023/06/03 00:13:47;;;;;;;7.13;3.22;;;20.80;64.60;;;;;;6256657;28;20062;-69
2023/06/03 00:16:48;;;;;;;7.88;3.63;;;20.80;64.30;;;;;;6240530;28;20666;-69
2023/06/03 00:19:49;;;;;;;5.25;3.22;;;20.90;64.10;;;;;;6241154;28;20052;-69
2023/06/03 00:22:50;;;;;;;9.65;2.90;;;20.80;63.60;;;;;;6241184;28;20121;-68
2023/06/03 00:25:52;;;;;;;5.32;2.30;;;20.90;63.40;;;;;;6239898;28;20115;-68
2023/06/03 00:28:52;;;;;;;4.13;2.67;;;20.80;62.80;;;;;;6241737;28;20040;-68
2023/06/03 00:31:53;;;;;;;3.95;2.45;;;20.80;62.60;;;;;;6240922;28;20542;-68
2023/06/03 00:34:54;;;;;;;3.50;2.22;;;20.80;62.40;;;;;;6215711;28;20038;-67
2023/06/03 00:37:55;;;;;;;5.75;2.15;;;20.70;62.10;;;;;;6216082;28;20129;-68
2023/06/03 00:40:56;;;;;;;3.33;2.50;;;20.70;61.70;;;;;;6217221;28;20022;-68
2023/06/03 00:43:57;;;;;;;6.18;2.70;;;20.70;61.30;;;;;;6215125;28;20030;-69
2023/06/03 00:46:58;;;;;;;3.65;2.08;;;20.60;61.20;;;;;;6215360;28;20037;-68
2023/06/03 00:49:59;;;;;;;3.83;2.33;;;20.60;61.00;;;;;;6214879;28;20459;-69
2023/06/03 00:53:02;;;;;;;5.80;2.10;;;20.60;61.00;;;;;;6232667;28;20056;-70
2023/06/03 00:56:04;;;;;;;3.25;2.38;;;20.50;61.00;;;;;;6239203;28;20040;-68
2023/06/03 00:59:05;;;;;;;5.50;2.00;;;20.50;61.00;;;;;;6239312;28;20382;-70
2023/06/03 01:02:06;;;;;;;9.73;2.13;;;20.40;61.10;;;;;;6239519;28;20105;-67
2023/06/03 01:05:07;;;;;;;4.25;2.45;;;20.40;61.10;;;;;;6238390;28;20442;-70
2023/06/03 01:08:18;;;;;;;4.20;2.30;;;20.40;61.20;;;;;;6239139;28;20103;-68
2023/06/03 01:11:57;;;;;;;8.07;2.60;;;20.30;61.20;;;;;;6240517;28;20044;-68
2023/06/03 01:15:04;;;;;;;2.37;2.10;;;20.30;61.40;;;;;;6195996;28;20123;-68
2023/06/03 01:18:05;;;;;;;5.43;2.10;;;20.20;61.50;;;;;;6195664;28;20052;-68
2023/06/03 01:21:07;;;;;;;5.20;2.35;;;20.20;61.70;;;;;;6212607;28;20041;-68
2023/06/03 01:24:18;;;;;;;17.25;2.75;;;20.10;61.70;;;;;;6212155;28;20030;-69
2023/06/03 01:27:20;;;;;;;5.65;2.60;;;20.10;61.90;;;;;;6212199;28;20042;-68
2023/06/03 01:30:21;;;;;;;3.50;2.50;;;20.10;62.00;;;;;;6211214;28;20724;-68
2023/06/03 01:33:23;;;;;;;3.40;2.45;;;20.10;62.10;;;;;;6190700;28;20034;-68
2023/06/03 01:36:24;;;;;;;4.13;2.30;;;20.10;62.10;;;;;;6212000;28;20140;-68
2023/06/03 01:39:26;;;;;;;5.65;2.40;;;20.00;62.10;;;;;;6212278;28;20116;-68
2023/06/03 01:42:27;;;;;;;6.05;2.83;;;20.00;62.10;;;;;;6211502;28;20034;-67
2023/06/03 01:45:28;;;;;;;7.93;2.65;;;20.00;62.20;;;;;;6211799;28;20108;-68
2023/06/03 01:48:29;;;;;;;4.40;2.53;;;20.00;62.30;;;;;;6215706;28;20549;-68
2023/06/03 01:51:30;;;;;;;6.68;2.80;;;20.00;62.50;;;;;;6218195;28;20739;-68
2023/06/03 01:54:30;;;;;;;5.75;2.60;;;20.00;62.70;;;;;;6238130;28;20033;-68
2023/06/03 01:57:31;;;;;;;7.80;3.00;;;20.00;62.90;;;;;;6237686;28;20456;-68
2023/06/03 02:00:32;;;;;;;6.68;3.10;;;20.00;64.00;;;;;;6237722;28;20030;-68
2023/06/03 02:03:34;;;;;;;6.18;3.22;;;20.00;63.40;;;;;;6239370;28;20026;-68
2023/06/03 02:06:36;;;;;;;4.63;2.72;;;20.00;63.50;;;;;;6238743;28;20038;-68
2023/06/03 02:09:37;;;;;;;6.03;3.30;;;20.00;63.70;;;;;;6238012;28;20178;-68
2023/06/03 02:12:38;;;;;;;7.25;3.70;;;20.00;63.90;;;;;;6239503;28;20029;-68
2023/06/03 02:15:47;;;;;;;9.43;3.85;;;20.10;63.90;;;;;;6239195;28;20060;-69
2023/06/03 02:18:48;;;;;;;7.40;2.35;;;20.10;63.90;;;;;;6254109;28;20738;-68
2023/06/03 02:21:50;;;;;;;5.53;2.70;;;20.00;64.00;;;;;;6237475;28;20849;-68
2023/06/03 02:24:52;;;;;;;3.83;2.60;;;20.00;63.80;;;;;;6237884;28;20546;-68
2023/06/03 02:27:56;;;;;;;5.95;2.72;;;20.00;64.50;;;;;;6239324;28;20634;-69
2023/06/03 02:30:57;;;;;;;7.95;2.70;;;20.00;63.50;;;;;;6237601;28;20047;-68
2023/06/03 02:33:58;;;;;;;6.10;3.33;;;19.90;63.30;;;;;;6221684;28;20022;-68
2023/06/03 02:36:59;;;;;;;5.15;2.80;;;19.90;63.40;;;;;;6212500;28;20116;-69
2023/06/03 02:40:00;;;;;;;5.68;2.63;;;19.80;63.40;;;;;;6212906;28;20043;-68
2023/06/03 02:43:00;;;;;;;4.95;2.55;;;19.80;63.50;;;;;;6219413;28;20041;-69
2023/06/03 02:46:02;;;;;;;3.75;2.45;;;19.70;63.50;;;;;;6222342;28;20026;-68
2023/06/03 02:49:04;;;;;;;6.20;2.85;;;19.70;63.60;;;;;;6221009;28;20069;-69
2023/06/03 02:52:07;;;;;;;4.03;2.38;;;19.70;63.50;;;;;;6229751;28;20091;-68
2023/06/03 02:55:08;;;;;;;3.67;2.63;;;19.70;63.60;;;;;;6245580;28;20033;-69
2023/06/03 02:58:12;;;;;;;5.10;2.60;;;19.70;63.60;;;;;;6244392;28;20045;-69
2023/06/03 03:01:13;;;;;;;6.80;2.85;;;19.60;63.70;;;;;;6245382;28;20033;-69
2023/06/03 03:04:14;;;;;;;5.72;2.67;;;19.70;63.90;;;;;;6245579;28;20119;-68
2023/06/03 03:07:17;;;;;;;3.33;2.65;;;19.70;63.90;;;;;;6245279;28;20388;-68
2023/06/03 03:10:17;;;;;;;6.05;3.10;;;19.70;63.80;;;;;;6246705;28;20091;-68
2023/06/03 03:13:19;;;;;;;5.68;3.17;;;19.70;64.00;;;;;;6245072;28;20407;-68
2023/06/03 03:16:21;;;;;;;5.38;2.97;;;19.70;64.10;;;;;;6245348;28;20159;-68
2023/06/03 03:19:24;;;;;;;4.40;2.97;;;19.70;64.30;;;;;;6245372;28;20060;-67
2023/06/03 03:22:27;;;;;;;8.25;3.65;;;19.70;64.50;;;;;;6244772;28;20480;-69
2023/06/03 03:25:29;;;;;;;7.25;3.22;;;19.70;64.60;;;;;;6244766;28;20026;-67
2023/06/03 03:28:31;;;;;;;5.28;3.25;;;19.70;64.70;;;;;;6245076;28;20057;-67
2023/06/03 03:31:34;;;;;;;7.30;3.30;;;19.70;64.60;;;;;;6246517;28;20029;-68
2023/06/03 03:34:38;;;;;;;5.32;3.42;;;19.70;64.60;;;;;;6237065;28;20105;-68
2023/06/03 03:37:41;;;;;;;10.10;4.05;;;19.70;64.60;;;;;;6220402;28;20091;-70
2023/06/03 03:40:42;;;;;;;6.07;3.13;;;19.70;64.80;;;;;;6220278;28;20034;-68
2023/06/03 03:43:43;;;;;;;6.82;3.05;;;19.70;65.00;;;;;;6221524;28;20434;-68
2023/06/03 03:46:56;;;;;;;5.60;3.15;;;19.70;65.10;;;;;;6221629;28;20030;-68
2023/06/03 03:50:21;;;;;;;6.20;2.67;;;19.70;65.20;;;;;;6239313;28;20112;-68
2023/06/03 03:53:34;;;;;;;6.13;2.97;;;19.80;65.00;;;;;;6190281;28;20116;-69
2023/06/03 03:56:36;;;;;;;6.57;3.00;;;19.70;64.80;;;;;;6173342;28;20034;-68
2023/06/03 03:59:38;;;;;;;3.25;2.28;;;19.80;64.40;;;;;;6189956;28;20089;-68
2023/06/03 04:02:41;;;;;;;6.00;2.13;;;19.60;63.50;;;;;;6189406;28;20379;-68
2023/06/03 04:05:49;;;;;;;4.97;2.33;;;19.70;62.80;;;;;;6190219;28;20067;-68
2023/06/03 04:08:52;;;;;;;8.35;2.63;;;19.50;62.40;;;;;;6190043;28;20061;-69
2023/06/03 04:11:53;;;;;;;4.15;2.33;;;19.60;62.40;;;;;;6173310;28;20039;-68
2023/06/03 04:14:57;;;;;;;5.95;2.08;;;19.50;62.30;;;;;;6173295;28;20041;-68
2023/06/03 04:17:59;;;;;;;6.85;2.38;;;19.50;62.40;;;;;;6189484;28;20066;-68
2023/06/03 04:21:00;;;;;;;3.20;2.28;;;19.50;62.40;;;;;;6189239;28;20030;-68
2023/06/03 04:24:04;;;;;;;7.95;2.30;;;19.50;62.60;;;;;;6172896;28;20125;-69
2023/06/03 04:27:08;;;;;;;7.05;2.38;;;19.50;62.60;;;;;;6189477;28;20058;-67
2023/06/03 04:30:10;;;;;;;6.85;2.15;;;19.50;62.30;;;;;;6218603;28;20095;-69
2023/06/03 04:33:11;;;;;;;2.60;2.00;;;19.50;62.00;;;;;;6231466;28;20438;-68
2023/06/03 04:36:12;;;;;;;4.28;1.90;;;19.50;62.00;;;;;;6232345;28;20142;-69
2023/06/03 04:39:13;;;;;;;12.63;2.30;;;19.50;61.90;;;;;;6215692;28;20034;-68
2023/06/03 04:42:17;;;;;;;4.18;2.20;;;19.50;62.00;;;;;;6231491;28;20053;-68
2023/06/03 04:45:23;;;;;;;3.53;2.40;;;19.50;62.00;;;;;;6239707;28;20029;-69
2023/06/03 04:48:26;;;;;;;4.55;2.28;;;19.40;62.00;;;;;;6239684;28;20441;-68
2023/06/03 04:51:29;;;;;;;4.28;2.67;;;19.40;62.00;;;;;;6235878;28;20030;-68
2023/06/03 04:54:31;;;;;;;4.90;2.08;;;19.40;62.20;;;;;;6239170;28;20756;-68
2023/06/03 04:57:32;;;;;;;3.75;2.05;;;19.40;62.60;;;;;;6228745;28;20167;-69
2023/06/03 05:00:33;;;;;;;2.65;1.83;;;19.40;62.30;;;;;;6215430;28;20433;-69
2023/06/03 05:03:40;;;;;;;4.78;2.08;;;19.40;62.20;;;;;;6215890;28;20073;-67
2023/06/03 05:06:42;;;;;;;3.25;2.20;;;19.60;61.70;;;;;;6214809;28;20045;-69
2023/06/03 05:09:44;;;;;;;3.33;2.20;;;19.60;61.30;;;;;;6215337;28;20146;-69
2023/06/03 05:12:45;;;;;;;3.28;1.95;;;19.60;61.00;;;;;;6214694;28;20026;-69
2023/06/03 05:15:46;;;;;;;7.22;2.10;;;19.60;61.50;;;;;;6241113;28;20095;-71
2023/06/03 05:18:47;;;;;;;6.47;2.35;;;19.70;60.50;;;;;;6239322;28;20026;-69
2023/06/03 05:21:48;;;;;;;3.53;2.10;;;19.60;60.40;;;;;;6239431;28;20025;-69
2023/06/03 05:24:50;;;;;;;3.28;2.10;;;19.60;60.10;;;;;;6239571;28;20142;-69
2023/06/03 05:27:51;;;;;;;4.35;2.03;;;19.60;60.10;;;;;;6239588;28;20045;-68
2023/06/03 05:30:54;;;;;;;4.20;2.08;;;19.60;60.20;;;;;;6239262;28;20030;-71
2023/06/03 05:33:57;;;;;;;4.05;2.00;;;19.60;60.20;;;;;;6230724;28;20033;-70
2023/06/03 05:37:00;;;;;;;4.45;2.30;;;19.60;60.30;;;;;;6230746;28;20044;-70
2023/06/03 05:40:02;;;;;;;4.25;2.95;;;19.60;60.40;;;;;;6215134;28;20029;-73
2023/06/03 05:43:06;;;;;;;7.13;2.33;;;19.60;60.40;;;;;;6236853;28;20121;-72
2023/06/03 05:46:07;;;;;;;3.70;2.38;;;19.60;60.50;;;;;;6238764;28;20059;-73
2023/06/03 05:49:08;;;;;;;4.78;2.50;;;19.70;60.60;;;;;;6238721;28;20165;-71
2023/06/03 05:52:09;;;;;;;6.43;2.42;;;19.80;60.60;;;;;;6238707;28;20037;-68
2023/06/03 05:55:27;;;;;;;4.55;2.75;;;19.80;60.40;;;;;;6239191;28;20124;-69
2023/06/03 05:59:23;;;;;;;;;;;;;;;;;;;;;
2023/06/03 06:02:42;;;;;;;5.00;2.70;;;19.90;60.30;;;;;;6240437;28;20116;-69
2023/06/03 06:06:15;;;;;;;4.40;2.58;;;20.00;60.20;;;;;;6241384;28;20045;-71
2023/06/03 06:09:16;;;;;;;5.13;2.42;;;20.10;60.10;;;;;;6238530;28;20107;-68
2023/06/03 06:12:17;;;;;;;3.33;2.30;;;20.10;60.00;;;;;;6221935;28;20037;-68
2023/06/03 06:15:19;;;;;;;9.70;2.92;;;20.10;60.00;;;;;;6238365;28;20082;-69
2023/06/03 06:18:22;;;;;;;5.22;3.35;;;20.10;60.00;;;;;;6238069;28;20431;-70
2023/06/03 06:21:23;;;;;;;5.90;2.83;;;20.20;59.90;;;;;;6221446;28;20082;-68
2023/06/03 06:24:24;;;;;;;3.65;2.20;;;20.40;60.00;;;;;;6239462;28;20033;-70
2023/06/03 06:27:27;;;;;;;5.00;3.08;;;20.40;59.90;;;;;;6239416;28;20036;-70
2023/06/03 06:30:28;;;;;;;5.53;3.13;;;20.40;59.70;;;;;;6240537;28;20032;-70
2023/06/03 06:33:30;;;;;;;4.55;2.88;;;20.60;59.50;;;;;;6239602;28;20476;-69
2023/06/03 06:36:52;;;;;;;9.23;2.70;;;20.80;59.40;;;;;;6237891;28;20044;-68
2023/06/03 06:40:01;;;;;;;6.07;2.67;;;20.90;59.10;;;;;;6213863;28;20105;-72
2023/06/03 06:43:16;;;;;;;7.05;3.08;;;21.10;58.90;;;;;;6252037;28;20132;-72
2023/06/03 06:46:37;;;;;;;6.25;3.28;;;21.20;58.50;;;;;;6238127;28;20044;-73
2023/06/03 06:49:39;;;;;;;11.80;2.97;;;21.40;58.50;;;;;;6238282;28;20148;-72
2023/06/03 06:52:40;;;;;;;4.15;2.88;;;21.60;58.40;;;;;;6211628;28;20042;-70
2023/06/03 06:55:55;;;;;;;4.90;3.22;;;21.80;58.20;;;;;;6199056;28;20028;-70
2023/06/03 06:59:02;;;;;;;8.00;4.07;;;22.00;57.70;;;;;;6237882;28;20227;-72
2023/06/03 07:02:03;;;;;;;4.40;3.40;;;22.30;57.30;;;;;;6237144;28;20486;-74
2023/06/03 07:05:05;;;;;;;8.30;4.25;;;22.60;56.80;;;;;;6238039;28;20042;-74
2023/06/03 07:08:06;;;;;;;4.95;3.03;;;22.70;56.40;;;;;;6259577;28;20071;-72
2023/06/03 07:11:08;;;;;;;6.53;3.53;;;22.90;55.80;;;;;;6239873;28;20065;-72
2023/06/03 07:14:14;;;;;;;4.60;3.08;;;23.10;55.40;;;;;;6223327;28;20044;-72
2023/06/03 07:17:16;;;;;;;5.10;3.15;;;23.20;54.80;;;;;;6213025;28;20038;-72
2023/06/03 07:20:27;;;;;;;5.28;3.30;;;23.20;54.60;;;;;;6213704;28;20037;-70
2023/06/03 07:23:28;;;;;;;4.22;2.60;;;23.20;54.50;;;;;;6213013;28;20696;-71
2023/06/03 07:26:32;;;;;;;6.43;3.67;;;23.10;54.40;;;;;;6212021;28;20091;-70
2023/06/03 07:29:37;;;;;;;7.18;3.67;;;23.00;54.40;;;;;;6223202;28;20025;-70
2023/06/03 07:32:39;;;;;;;5.18;2.97;;;23.00;54.80;;;;;;6232677;28;20026;-71
2023/06/03 07:35:40;;;;;;;4.22;3.08;;;23.00;54.70;;;;;;6235528;28;20033;-71
2023/06/03 07:39:05;;;;;;;6.07;2.85;;;23.10;54.60;;;;;;6233826;28;20055;-73
2023/06/03 07:42:26;;;;;;;9.73;3.15;;;23.30;54.40;;;;;;6230372;28;20486;-71
2023/06/03 07:45:36;;;;;;;6.22;3.08;;;23.30;54.00;;;;;;6237015;28;20033;-71
2023/06/03 07:48:38;;;;;;;10.98;4.80;;;23.30;54.40;;;;;;6243763;28;20074;-72
2023/06/03 07:51:49;;;;;;;4.47;3.30;;;23.40;53.90;;;;;;6241694;28;20105;-71
2023/06/03 07:54:50;;;;;;;6.50;3.28;;;23.40;53.70;;;;;;6240053;28;20650;-71
2023/06/03 07:57:51;;;;;;;5.80;3.17;;;23.60;53.60;;;;;;6241251;28;20075;-72
2023/06/03 08:00:52;;;;;;;9.95;3.33;;;23.70;53.20;;;;;;6241526;28;20037;-72
2023/06/03 08:03:53;;;;;;;5.47;2.88;;;23.80;53.00;;;;;;6242412;28;20091;-71
2023/06/03 08:06:55;;;;;;;7.45;2.92;;;23.80;52.70;;;;;;6242857;28;20033;-69
2023/06/03 08:09:57;;;;;;;8.00;3.13;;;23.90;52.70;;;;;;6225073;28;20493;-72
2023/06/03 08:12:58;;;;;;;5.45;2.88;;;23.90;52.70;;;;;;6242541;28;20063;-71
2023/06/03 08:16:00;;;;;;;7.10;3.13;;;23.80;52.50;;;;;;6240917;28;20037;-71
2023/06/03 08:19:01;;;;;;;5.55;2.85;;;23.80;52.60;;;;;;6240085;28;20532;-71
2023/06/03 08:22:05;;;;;;;5.32;3.10;;;23.80;52.80;;;;;;6216993;28;20800;-70
2023/06/03 08:25:06;;;;;;;6.60;3.60;;;23.80;52.70;;;;;;6242857;28;20026;-72
2023/06/03 08:28:07;;;;;;;4.75;2.88;;;23.90;52.70;;;;;;6243201;28;20358;-73
2023/06/03 08:31:08;;;;;;;5.72;3.25;;;24.00;52.50;;;;;;6240699;28;20029;-74
2023/06/03 08:34:09;;;;;;;6.22;3.25;;;24.00;52.30;;;;;;6238263;28;20548;-72
2023/06/03 08:37:10;;;;;;;4.25;2.58;;;24.10;52.30;;;;;;6242536;28;20449;-73
2023/06/03 08:40:15;;;;;;;4.50;3.33;;;24.10;52.20;;;;;;6242157;28;20040;-71
2023/06/03 08:43:22;;;;;;;7.85;2.90;;;24.20;52.20;;;;;;6229262;28;20060;-73
2023/06/03 08:46:30;;;;;;;6.80;3.38;;;24.30;52.10;;;;;;6240973;28;20076;-73
2023/06/03 08:49:59;;;;;;;5.38;3.17;;;24.50;51.80;;;;;;6240298;28;20583;-73
2023/06/03 08:53:08;;;;;;;5.22;2.80;;;24.60;51.70;;;;;;6223904;28;20068;-74
2023/06/03 08:56:11;;;;;;;6.05;2.40;;;24.80;51.30;;;;;;6223178;28;20083;-73
2023/06/03 08:59:18;;;;;;;4.03;2.88;;;24.90;51.10;;;;;;6241915;28;20040;-74
2023/06/03 09:02:19;;;;;;;7.60;2.38;;;25.00;49.90;;;;;;6241475;28;20598;-71
2023/06/03 09:05:21;;;;;;;4.22;2.60;;;25.10;49.50;;;;;;6241911;28;20034;-73
2023/06/03 09:08:23;;;;;;;11.13;2.42;;;25.10;49.20;;;;;;6240061;28;20183;-72
2023/06/03 09:11:25;;;;;;;4.05;2.15;;;25.20;49.00;;;;;;6241431;28;20048;-72
2023/06/03 09:14:27;;;;;;;4.05;2.50;;;25.20;48.60;;;;;;6242062;28;20481;-73
2023/06/03 09:17:29;;;;;;;5.57;2.60;;;25.30;48.30;;;;;;6239801;28;20472;-74
2023/06/03 09:20:29;;;;;;;6.28;2.78;;;25.40;48.10;;;;;;6241644;28;20029;-72
2023/06/03 09:23:31;;;;;;;3.88;2.55;;;25.50;47.90;;;;;;6241046;28;20369;-73
2023/06/03 09:26:32;;;;;;;2.63;2.10;;;25.50;47.50;;;;;;6242246;28;20420;-72
2023/06/03 09:29:33;;;;;;;6.53;2.67;;;25.40;47.40;;;;;;6241782;28;20091;-72
2023/06/03 09:32:36;;;;;;;3.15;2.40;;;25.50;47.40;;;;;;6239343;28;20033;-72
2023/06/03 09:35:37;;;;;;;9.77;3.00;;;25.60;47.00;;;;;;6241198;28;20095;-71
2023/06/03 09:38:47;;;;;;;2.78;2.00;;;25.60;46.80;;;;;;6241242;28;20033;-71
2023/06/03 09:41:50;;;;;;;6.03;2.53;;;25.70;46.80;;;;;;6239032;28;20108;-74
2023/06/03 09:44:55;;;;;;;3.38;2.28;;;25.70;46.50;;;;;;6238780;28;20043;-72
2023/06/03 09:47:57;;;;;;;2.60;2.10;;;25.90;46.50;;;;;;6238911;28;20037;-71
2023/06/03 09:50:58;;;;;;;3.33;2.00;;;26.00;46.30;;;;;;6239521;28;20148;-73
2023/06/03 09:54:16;;;;;;;3.25;1.95;;;26.10;46.20;;;;;;6215398;28;20094;-72
2023/06/03 09:57:17;;;;;;;6.43;2.83;;;26.20;45.90;;;;;;6230981;28;20423;-72
2023/06/03 10:00:18;;;;;;;3.20;2.20;;;26.30;45.90;;;;;;6239872;28;20022;-71
2023/06/03 10:03:25;;;;;;;5.47;2.03;;;26.30;45.30;;;;;;6221490;28;20434;-71
2023/06/03 10:06:26;;;;;;;4.50;2.00;;;26.30;45.10;;;;;;6239917;28;20120;-72
2023/06/03 10:09:27;;;;;;;2.42;1.83;;;26.40;44.90;;;;;;6240560;28;20025;-72
2023/06/03 10:12:29;;;;;;;3.88;2.50;;;26.40;45.00;;;;;;6254627;28;20068;-73
2023/06/03 10:15:39;;;;;;;3.83;2.22;;;26.60;44.90;;;;;;6240108;28;20033;-74
2023/06/03 10:18:41;;;;;;;6.53;2.47;;;26.80;44.90;;;;;;6222687;28;20029;-72
2023/06/03 10:21:44;;;;;;;5.30;3.00;;;26.90;44.50;;;;;;6239746;28;20029;-72
2023/06/03 10:24:46;;;;;;;5.68;2.65;;;27.00;44.40;;;;;;6214756;28;20109;-73
2023/06/03 10:27:48;;;;;;;3.90;2.42;;;27.00;44.10;;;;;;6233819;28;20033;-73
2023/06/03 10:30:50;;;;;;;3.63;2.45;;;27.00;43.60;;;;;;6237905;28;20113;-74
2023/06/03 10:33:52;;;;;;;5.43;2.53;;;27.10;43.60;;;;;;6229271;28;20042;-73
2023/06/03 10:36:57;;;;;;;10.80;2.45;;;27.20;43.30;;;;;;6213618;28;20034;-72
2023/06/03 10:39:59;;;;;;;3.53;2.17;;;27.40;43.10;;;;;;6213278;28;20041;-71
2023/06/03 10:43:02;;;;;;;3.45;2.05;;;27.50;42.70;;;;;;6217476;28;20452;-70
2023/06/03 10:46:04;;;;;;;3.00;1.67;;;27.60;42.30;;;;;;6239569;28;20078;-72
2023/06/03 10:49:07;;;;;;;2.28;1.77;;;27.70;42.00;;;;;;6213397;28;20077;-71
2023/06/03 10:52:16;;;;;;;3.25;2.00;;;27.80;41.60;;;;;;6239210;28;20041;-71
2023/06/03 10:55:43;;;;;;;2.55;2.08;;;28.00;41.20;;;;;;6230064;28;20036;-70
2023/06/03 10:58:47;;;;;;;6.82;2.05;;;28.30;40.80;;;;;;6227352;28;20026;-72
2023/06/03 11:02:02;;;;;;;2.72;2.00;;;28.40;40.60;;;;;;6238921;28;20470;-71
2023/06/03 11:05:23;;;;;;;3.60;2.65;;;28.50;40.70;;;;;;6243021;28;20430;-72
2023/06/03 11:08:57;;;;;;;4.03;2.28;;;28.60;40.70;;;;;;6240408;28;20053;-71
2023/06/03 11:12:04;;;;;;;5.95;2.38;;;28.70;40.80;;;;;;6243061;28;20036;-71
2023/06/03 11:15:05;;;;;;;11.10;3.20;;;28.80;40.60;;;;;;6243475;28;20041;-71
2023/06/03 11:18:17;;;;;;;2.88;2.13;;;28.90;40.60;;;;;;6243213;28;20029;-69
2023/06/03 11:21:51;;;;;;;4.22;2.17;;;28.90;40.50;;;;;;6241529;28;20493;-71
2023/06/03 11:24:52;;;;;;;4.85;2.50;;;29.00;40.60;;;;;;6166931;28;20462;-71
2023/06/03 11:27:53;;;;;;;3.38;1.92;;;29.10;40.50;;;;;;6165573;28;20042;-70
2023/06/03 11:30:55;;;;;;;5.32;2.50;;;29.20;40.10;;;;;;6142952;29;20490;-70
2023/06/03 11:34:24;;;;;;;4.18;2.13;;;29.20;39.80;;;;;;6152721;28;20063;-69
2023/06/03 11:37:54;;;;;;;3.22;1.85;;;29.20;39.50;;;;;;6142394;28;20035;-70
2023/06/03 11:40:55;;;;;;;6.70;2.20;;;29.10;38.90;;;;;;6120463;29;20059;-69
2023/06/03 11:44:20;;;;;;;1.95;1.58;;;29.30;38.20;;;;;;6126324;29;20139;-69
2023/06/03 11:47:21;;;;;;;4.65;2.70;;;29.40;37.80;;;;;;6142719;29;20521;-71
2023/06/03 11:50:24;;;;;;;3.40;2.60;;;29.70;38.20;;;;;;6142561;29;20047;-71
2023/06/03 11:53:36;;;;;;;6.30;2.78;;;30.10;38.20;;;;;;6174845;28;20118;-71
2023/06/03 11:56:56;;;;;;;3.65;2.65;;;30.40;38.10;;;;;;6154106;28;20122;-72
2023/06/03 11:59:58;;;;;;;3.85;2.60;;;30.70;37.90;;;;;;6157167;28;20095;-71
2023/06/03 12:02:59;;;;;;;5.22;3.05;;;31.10;37.30;;;;;;6232042;28;20116;-70
2023/06/03 12:06:02;;;;;;;3.47;2.40;;;31.50;37.00;;;;;;6242618;28;20025;-70
2023/06/03 12:09:03;;;;;;;4.78;2.50;;;31.70;36.50;;;;;;6242867;28;20025;-69
2023/06/03 12:12:08;;;;;;;4.85;2.67;;;31.80;36.20;;;;;;6238420;28;20315;-69
2023/06/03 12:15:10;;;;;;;3.72;2.70;;;32.00;36.10;;;;;;6232099;28;20033;-71
2023/06/03 12:18:11;;;;;;;6.05;2.80;;;32.10;36.00;;;;;;6241078;28;20500;-69
2023/06/03 12:21:22;;;;;;;3.17;2.17;;;32.10;35.80;;;;;;6239999;28;20037;-71
2023/06/03 12:24:28;;;;;;;11.73;2.55;;;32.10;35.60;;;;;;6231259;28;20022;-71
2023/06/03 12:27:30;;;;;;;4.35;3.05;;;32.00;35.60;;;;;;6242904;28;20026;-70
2023/06/03 12:30:34;;;;;;;4.45;2.80;;;32.00;35.70;;;;;;6232940;28;20044;-70
2023/06/03 12:33:40;;;;;;;5.70;2.85;;;32.00;35.80;;;;;;6241075;28;20044;-72
2023/06/03 12:36:48;;;;;;;4.15;2.60;;;32.00;35.50;;;;;;6238793;28;20053;-70
2023/06/03 12:39:49;;;;;;;;;;;31.90;35.60;;;;;;6241601;28;20033;-70
2023/06/03 12:42:50;;;;;;;10.73;2.60;;;31.90;35.80;;;;;;6241246;28;20094;-71
2023/06/03 12:45:53;;;;;;;3.45;2.53;;;32.00;35.90;;;;;;6241333;28;20041;-70
2023/06/03 12:48:57;;;;;;;4.75;2.85;;;32.50;35.40;;;;;;6239637;28;20042;-70
2023/06/03 12:52:14;;;;;;;9.70;2.70;;;33.50;34.20;;;;;;6239329;28;20030;-72
2023/06/03 12:55:17;;;;;;;4.32;2.40;;;34.50;33.00;;;;;;6239688;28;20087;-71
2023/06/03 12:58:19;;;;;;;6.18;2.92;;;35.50;31.20;;;;;;6240863;28;20117;-71
2023/06/03 13:01:21;;;;;;;3.80;2.15;;;36.30;30.30;;;;;;6240835;28;20018;-70
2023/06/03 13:04:23;;;;;;;3.80;2.30;;;37.10;29.60;;;;;;6239599;28;20025;-71
2023/06/03 13:07:23;;;;;;;5.28;2.50;;;37.90;28.70;;;;;;6241082;28;20025;-70
2023/06/03 13:10:24;;;;;;;3.15;2.28;;;38.80;27.70;;;;;;6222691;28;20041;-70
2023/06/03 13:13:28;;;;;;;3.03;2.03;;;39.60;26.80;;;;;;6238813;28;20029;-72
2023/06/03 13:16:29;;;;;;;7.22;1.70;;;40.30;25.90;;;;;;6221855;28;20029;-72
2023/06/03 13:19:30;;;;;;;4.97;1.80;;;40.80;24.30;;;;;;6237944;28;20168;-73
2023/06/03 13:22:35;;;;;;;4.90;2.13;;;41.10;22.80;;;;;;6240404;28;20025;-70
2023/06/03 13:25:36;;;;;;;2.55;1.60;;;41.10;23.30;;;;;;6238633;28;20461;-72
2023/06/03 13:28:37;;;;;;;3.28;1.60;;;41.40;22.90;;;;;;6237759;28;20045;-72
2023/06/03 13:31:38;;;;;;;2.00;1.52;;;41.90;22.00;;;;;;6239864;28;20107;-68
2023/06/03 13:34:39;;;;;;;3.67;1.33;;;42.30;21.20;;;;;;6239848;28;20087;-71
2023/06/03 13:37:40;;;;;;;1.40;1.30;;;42.40;20.70;;;;;;6239434;28;20037;-71
2023/06/03 13:40:41;;;;;;;1.25;1.02;;;42.60;20.70;;;;;;6239988;28;20040;-70
2023/06/03 13:43:42;;;;;;;3.53;1.38;;;43.00;20.20;;;;;;6240013;28;20472;-70
2023/06/03 13:46:43;;;;;;;1.23;1.13;;;43.20;20.10;;;;;;6239493;28;20096;-70
2023/06/03 13:49:44;;;;;;;2.38;1.50;;;43.60;19.80;;;;;;6238359;28;20029;-70
2023/06/03 13:52:45;;;;;;;3.35;1.40;;;43.70;19.70;;;;;;6238713;28;20052;-69
2023/06/03 13:55:46;;;;;;;2.17;1.35;;;44.30;19.60;;;;;;6234259;28;20052;-71
2023/06/03 13:58:47;;;;;;;3.22;1.50;;;44.50;19.20;;;;;;6238359;28;20084;-72
2023/06/03 14:01:48;;;;;;;2.20;1.38;;;43.80;19.30;;;;;;6220199;28;20078;-70
2023/06/03 14:04:49;;;;;;;1.92;1.58;;;43.00;19.90;;;;;;6237549;28;20463;-72
2023/06/03 14:07:52;;;;;;;2.75;1.33;;;42.50;20.40;;;;;;6238038;28;20091;-71
2023/06/03 14:10:53;;;;;;;1.23;1.00;;;42.90;19.90;;;;;;6239463;28;20064;-71
2023/06/03 14:13:54;;;;;;;1.77;1.30;;;43.20;19.40;;;;;;6221294;28;20758;-71
2023/06/03 14:17:22;;;;;;;5.20;1.40;;;43.30;19.30;;;;;;6238218;28;20180;-72
2023/06/03 14:21:11;;;;;;;2.92;1.40;;;43.30;19.20;;;;;;6174398;28;20042;-71
2023/06/03 14:24:12;;;;;;;2.50;1.50;;;43.30;19.50;;;;;;6067776;29;20139;-71
2023/06/03 14:27:26;;;;;;;3.33;1.50;;;43.40;19.50;;;;;;6068668;29;20493;-72
2023/06/03 14:30:28;;;;;;;4.40;1.70;;;42.90;19.80;;;;;;6068344;29;20087;-72
2023/06/03 14:33:29;;;;;;;2.03;1.65;;;42.80;20.10;;;;;;6067497;29;20103;-73
2023/06/03 14:36:30;;;;;;;4.00;1.80;;;42.40;20.80;;;;;;6067774;29;20040;-71
2023/06/03 14:39:30;;;;;;;1.40;1.30;;;41.80;20.60;;;;;;6068492;29;20041;-72
2023/06/03 14:42:31;;;;;;;1.85;1.40;;;41.10;21.40;;;;;;6067704;29;20084;-71
2023/06/03 14:45:32;;;;;;;2.85;1.60;;;40.60;22.00;;;;;;6068227;29;20478;-72
2023/06/03 14:48:33;;;;;;;2.58;1.40;;;39.70;22.70;;;;;;6068035;29;20040;-71
2023/06/03 14:51:34;;;;;;;2.22;2.03;;;38.60;23.40;;;;;;6067525;29;20073;-71
2023/06/03 14:54:35;;;;;;;2.78;1.83;;;37.80;24.30;;;;;;6067851;29;20481;-72
2023/06/03 14:57:36;;;;;;;2.78;1.70;;;37.20;25.00;;;;;;6099226;29;20039;-72
2023/06/03 15:00:37;;;;;;;5.60;2.20;;;36.30;25.70;;;;;;6162436;28;20169;-72
2023/06/03 15:03:38;;;;;;;2.10;1.85;;;35.50;26.70;;;;;;6236321;28;20021;-71
2023/06/03 15:06:38;;;;;;;2.55;1.77;;;34.70;27.80;;;;;;6238823;28;20482;-72
2023/06/03 15:09:39;;;;;;;3.05;1.70;;;34.10;28.70;;;;;;6239223;28;20029;-72
2023/06/03 15:12:40;;;;;;;3.35;1.90;;;33.50;29.50;;;;;;6238726;28;20751;-72
2023/06/03 15:15:41;;;;;;;3.10;2.10;;;33.00;30.00;;;;;;6237219;28;20117;-71
2023/06/03 15:18:42;;;;;;;2.90;1.90;;;32.60;30.80;;;;;;6238694;28;20025;-72
2023/06/03 15:21:43;;;;;;;4.70;2.50;;;32.30;31.50;;;;;;6238124;28;20026;-71
2023/06/03 15:24:44;;;;;;;2.65;1.80;;;32.20;31.90;;;;;;6236868;28;20520;-71
2023/06/03 15:27:45;;;;;;;3.35;1.83;;;32.10;32.10;;;;;;6237409;28;20037;-70
2023/06/03 15:30:46;;;;;;;2.42;1.90;;;32.00;32.30;;;;;;6236847;28;20041;-71
2023/06/03 15:33:47;;;;;;;3.08;1.77;;;32.10;32.40;;;;;;6228413;28;20045;-71
2023/06/03 15:36:47;;;;;;;2.55;1.90;;;32.30;32.20;;;;;;6212215;28;20034;-72
2023/06/03 15:39:48;;;;;;;3.03;2.08;;;32.50;32.00;;;;;;6213687;28;20037;-71
2023/06/03 15:42:49;;;;;;;3.08;1.73;;;32.50;32.10;;;;;;6211904;28;20412;-70
2023/06/03 15:45:50;;;;;;;2.22;1.90;;;32.30;32.60;;;;;;6213878;28;20030;-70
2023/06/03 15:48:51;;;;;;;2.67;1.65;;;32.00;33.00;;;;;;6213711;28;20038;-70
2023/06/03 15:51:52;;;;;;;2.20;1.73;;;31.70;33.30;;;;;;6223700;28;20116;-69
2023/06/03 15:54:53;;;;;;;2.58;1.85;;;31.40;33.40;;;;;;6242536;28;20441;-72
2023/06/03 15:57:53;;;;;;;2.47;1.95;;;31.10;33.30;;;;;;6224491;28;20428;-72
2023/06/03 16:00:54;;;;;;;1.60;1.50;;;30.90;33.40;;;;;;6242324;28;20029;-71